Arches, Utah
Current Conditions -  °F | °C
As of 12:53 AM on Friday 24 Oct 2014 (Local Time) from KCNY Reporting Station
Clear Clear  
Wind Chill: 48°   Ceiling: Unl
Heat Index: 48°   Visibility: 10mi
Dew Point: 32°   Wind: 3mph
Humidity: 54%   Direction: 260°W
Pressure: 30.17"   Gusts: NA
Location:  38.6903°N, 109.256°W
Report Text: KCNY 240653Z AUTO 26003KT 10SM CLR 09/00 A3017 RMK AO2 SLP187 T00890000 402330061
Loading
Personal Weather Stations






























Interactive Weather Map
Tropical Storm Tracking
New forecast layout! Learn more

10-Day Weather Forecast

Advertisements
Track Severe Weather on mobile